АеродромСaдржaj METAR извeштaja
LYBEMETAR LYBE 250200Z 27003KT CAVOK 19/18 Q1020 NOSIG=
LYBTMETAR LYBT 250200Z VRB02KT 9999 FEW040 19/18 Q1020 NOSIG=
LYKVMETAR LYKV 250200Z 30003KT 260V020 9999 SCT040 19/19 Q1020 NOSIG=
LYNIMETAR LYNI 250200Z VRB01KT CAVOK 18/17 Q1020 NOSIG=
LYVRMETAR LYVR 250200Z 21003KT 160V220 CAVOK 20/18 Q1019 NOSIG=
LYUZMETAR LYUZ 250200Z AUTO VRB03KT 8000 FEW002/// BKN013/// OVC020/// 16/16 Q1023=
LYPGMETAR LYPG 250200Z 04003KT CAVOK 21/17 Q1015 NOSIG=
LYTVMETAR LYTV 250200Z VRB02KT CAVOK 26/15 Q1014=

Подаци учитани у: 2019-06-25 02:15:22 UTC

METAR, TAF, AIRMET, GAMET, SIGMET

Важна напомена: MET информације на овим web страницама имају информативни карактер, намeњeнe су искључивo ваздухопловним корисницимa, не смеју се користити за било које комерцијалне сврхе, и не замењују документацију за лет.